| time (UTC) | temp F | wind direction | speed MPH | gust MPH | rain 1hr in | rain 24hr in | rain mn in | humidity % | barometer mb |
| 20260510091437 | 22 | 176 | 0.0 | 0.0 | 0.00 | 0.00 | 0.00 | 92 | 1019.6 |
| 20260510085933 | 22 | 176 | 0.0 | 0.0 | 0.00 | 0.00 | 0.00 | 91 | 1019.6 |
| 20260510083942 | 24 | 177 | 1.0 | 3.0 | 0.00 | 0.00 | 0.00 | 91 | 1019.4 |
| 20260510082413 | 26 | 180 | 0.0 | 3.0 | 0.00 | 0.00 | 0.00 | 91 | 1019.4 |
| 20260510080422 | 26 | 182 | 0.0 | 0.0 | 0.00 | 0.00 | 0.00 | 92 | 1019.1 |
| 20260510074911 | 27 | 178 | 0.0 | 0.0 | 0.00 | 0.00 | 0.00 | 90 | 1019.0 |
| 20260510072904 | 28 | 182 | 0.0 | 0.0 | 0.00 | 0.00 | 0.00 | 91 | 1018.9 |
| 20260510071349 | 28 | 182 | 0.0 | 0.0 | 0.00 | 0.00 | 0.00 | 90 | 1019.0 |
| 20260510065414 | 29 | 181 | 0.0 | 0.0 | 0.00 | 0.00 | 0.00 | 90 | 1018.9 |
| 20260510063854 | 29 | 182 | 0.0 | 0.0 | 0.00 | 0.00 | 0.00 | 89 | 1018.8 |
| 20260510061910 | 29 | 182 | 0.0 | 0.0 | 0.00 | 0.00 | 0.00 | 88 | 1018.7 |
| 20260510060359 | 29 | 182 | 0.0 | 1.0 | 0.00 | 0.00 | 0.00 | 86 | 1018.6 |
| 20260510054856 | 30 | 182 | 0.0 | 0.0 | 0.00 | 0.00 | 0.00 | 86 | 1018.5 |
| 20260510052910 | 30 | 182 | 0.0 | 1.0 | 0.00 | 0.00 | 0.00 | 80 | 1018.5 |
| 20260510050915 | 32 | 182 | 1.0 | 3.0 | 0.00 | 0.00 | 0.00 | 75 | 1018.3 |
| 20260510045405 | 34 | 35 | 0.0 | 3.0 | 0.00 | 0.00 | 0.00 | 72 | 1018.4 |
| 20260510043413 | 33 | 38 | 2.0 | 3.0 | 0.00 | 0.00 | 0.00 | 74 | 1018.2 |
| 20260510041903 | 33 | 40 | 0.0 | 0.0 | 0.00 | 0.00 | 0.00 | 69 | 1018.1 |
| 20260510035908 | 34 | 39 | 0.0 | 0.0 | 0.00 | 0.00 | 0.00 | 67 | 1017.9 |
| 20260510034357 | 36 | 40 | 0.0 | 2.0 | 0.00 | 0.00 | 0.00 | 66 | 1017.8 |
| 20260510031912 | 38 | 40 | 0.0 | 3.0 | 0.00 | 0.00 | 0.00 | 62 | 1017.6 |
| 20260510030403 | 39 | 11 | 3.0 | 6.0 | 0.00 | 0.00 | 0.00 | 60 | 1017.4 |
| 20260510024401 | 42 | 338 | 2.0 | 4.0 | 0.00 | 0.00 | 0.00 | 51 | 1016.9 |
| 20260510022410 | 45 | 278 | 2.0 | 7.0 | 0.00 | 0.00 | 0.00 | 46 | 1016.6 |
| 20260510020900 | 47 | 274 | 5.0 | 12.0 | 0.00 | 0.00 | 0.00 | 44 | 1016.6 |
| 20260510014420 | 49 | 329 | 9.0 | 14.0 | 0.00 | 0.00 | 0.00 | 42 | 1016.3 |
| 20260510012909 | 50 | 343 | 9.0 | 14.0 | 0.00 | 0.00 | 0.00 | 43 | 1016.2 |
| 20260510011406 | 51 | 298 | 9.0 | 15.0 | 0.00 | 0.00 | 0.00 | 43 | 1016.1 |
| 20260510005900 | 51 | 295 | 12.0 | 19.0 | 0.00 | 0.00 | 0.00 | 42 | 1016.0 |
| 20260510003905 | 51 | 308 | 10.0 | 18.0 | 0.00 | 0.00 | 0.00 | 42 | 1015.9 |
| 20260510001902 | 52 | 306 | 12.0 | 17.0 | 0.00 | 0.00 | 0.00 | 41 | 1016.0 |
| 20260510000356 | 52 | 287 | 9.0 | 17.0 | 0.00 | 0.00 | 0.00 | 42 | 1015.9 |
| 20260509234405 | 52 | 284 | 14.0 | 21.0 | 0.00 | 0.00 | 0.00 | 40 | 1015.7 |
| 20260509232413 | 52 | 268 | 13.0 | 20.0 | 0.00 | 0.00 | 0.00 | 41 | 1015.7 |
| 20260509230409 | 52 | 360 | 12.0 | 22.0 | 0.00 | 0.00 | 0.00 | 39 | 1015.5 |
| 20260509224909 | 53 | 313 | 14.0 | 24.0 | 0.00 | 0.00 | 0.00 | 38 | 1015.7 |
| 20260509223401 | 53 | 273 | 15.0 | 22.0 | 0.00 | 0.00 | 0.00 | 38 | 1015.6 |
| 20260509221419 | 53 | 296 | 15.0 | 24.0 | 0.00 | 0.00 | 0.00 | 37 | 1015.4 |
| 20260509215906 | 53 | 300 | 15.0 | 24.0 | 0.00 | 0.00 | 0.00 | 37 | 1015.5 |
| 20260509213916 | 52 | 277 | 15.0 | 22.0 | 0.00 | 0.00 | 0.00 | 38 | 1015.4 |
| 20260509212405 | 53 | 298 | 16.0 | 23.0 | 0.00 | 0.00 | 0.00 | 36 | 1015.2 |
| 20260509210901 | 53 | 302 | 14.0 | 23.0 | 0.00 | 0.00 | 0.00 | 37 | 1015.2 |
| 20260509204914 | 53 | 302 | 12.0 | 25.0 | 0.00 | 0.00 | 0.00 | 37 | 1015.2 |
| 20260509203401 | 53 | 269 | 14.0 | 23.0 | 0.00 | 0.00 | 0.00 | 37 | 1015.2 |
| 20260509201413 | 52 | 331 | 16.0 | 22.0 | 0.00 | 0.00 | 0.00 | 35 | 1015.0 |
| 20260509195411 | 52 | 324 | 15.0 | 24.0 | 0.00 | 0.00 | 0.00 | 36 | 1015.0 |
| 20260509193903 | 52 | 328 | 16.0 | 24.0 | 0.00 | 0.00 | 0.00 | 36 | 1014.9 |
| 20260509191900 | 51 | 314 | 16.0 | 25.0 | 0.00 | 0.00 | 0.00 | 35 | 1014.8 |
| 20260509185851 | 51 | 336 | 15.0 | 25.0 | 0.00 | 0.00 | 0.00 | 34 | 1014.7 |
| 20260509183907 | 51 | 286 | 15.0 | 24.0 | 0.00 | 0.00 | 0.00 | 39 | 1014.6 |
| 20260509181912 | 51 | 288 | 15.0 | 23.0 | 0.00 | 0.00 | 0.00 | 39 | 1014.5 |
| 20260509175915 | 50 | 311 | 14.0 | 23.0 | 0.00 | 0.00 | 0.00 | 39 | 1014.5 |
| 20260509173909 | 50 | 313 | 15.0 | 25.0 | 0.00 | 0.00 | 0.00 | 41 | 1014.5 |
| 20260509172403 | 49 | 337 | 13.0 | 22.0 | 0.00 | 0.00 | 0.00 | 41 | 1014.6 |
| 20260509170407 | 48 | 292 | 14.0 | 24.0 | 0.00 | 0.00 | 0.00 | 42 | 1014.5 |
| 20260509164858 | 48 | 307 | 12.0 | 25.0 | 0.00 | 0.00 | 0.00 | 43 | 1014.7 |
| 20260509162905 | 47 | 288 | 10.0 | 20.0 | 0.00 | 0.00 | 0.00 | 47 | 1014.7 |
| 20260509160904 | 46 | 311 | 12.0 | 21.0 | 0.00 | 0.00 | 0.00 | 48 | 1014.8 |
| 20260509154908 | 45 | 291 | 12.0 | 21.0 | 0.00 | 0.00 | 0.00 | 50 | 1014.7 |
| 20260509152922 | 44 | 294 | 11.0 | 17.0 | 0.00 | 0.00 | 0.00 | 54 | 1014.8 |
| 20260509151412 | 44 | 300 | 12.0 | 18.0 | 0.00 | 0.00 | 0.00 | 53 | 1014.6 |
| 20260509145907 | 43 | 302 | 10.0 | 16.0 | 0.00 | 0.00 | 0.00 | 56 | 1014.6 |
| 20260509143906 | 42 | 300 | 8.0 | 14.0 | 0.00 | 0.00 | 0.00 | 60 | 1014.5 |
| 20260509141909 | 40 | 288 | 7.0 | 12.0 | 0.00 | 0.00 | 0.00 | 65 | 1014.6 |
| 20260509140354 | 40 | 260 | 4.0 | 11.0 | 0.00 | 0.00 | 0.00 | 66 | 1014.6 |
| 20260509134402 | 38 | 347 | 3.0 | 8.0 | 0.00 | 0.00 | 0.00 | 71 | 1014.3 |
| 20260509132413 | 36 | 329 | 4.0 | 8.0 | 0.00 | 0.00 | 0.00 | 76 | 1014.1 |
| 20260509130905 | 35 | 312 | 4.0 | 8.0 | 0.00 | 0.00 | 0.00 | 80 | 1014.0 |
| 20260509125356 | 33 | 325 | 4.0 | 6.0 | 0.00 | 0.00 | 0.00 | 83 | 1013.7 |
| 20260509123354 | 31 | 304 | 4.0 | 5.0 | 0.00 | 0.00 | 0.00 | 85 | 1013.5 |
| 20260509121417 | 28 | 291 | 3.0 | 4.0 | 0.00 | 0.00 | 0.00 | 88 | 1013.1 |
| 20260509115856 | 26 | 265 | 2.0 | 4.0 | 0.00 | 0.00 | 0.00 | 89 | 1012.9 |
| 20260509113903 | 24 | 292 | 2.0 | 4.0 | 0.00 | 0.00 | 0.00 | 88 | 1012.5 |
| 20260509112357 | 24 | 314 | 1.0 | 2.0 | 0.00 | 0.00 | 0.00 | 88 | 1012.3 |
| 20260509110417 | 24 | 319 | 0.0 | 3.0 | 0.00 | 0.00 | 0.00 | 88 | 1012.2 |
| 20260509104858 | 24 | 320 | 1.0 | 2.0 | 0.00 | 0.00 | 0.00 | 87 | 1012.1 |
| 20260509102900 | 25 | 313 | 1.0 | 2.0 | 0.00 | 0.00 | 0.00 | 86 | 1011.9 |
| 20260509101354 | 26 | 320 | 1.0 | 2.0 | 0.00 | 0.00 | 0.00 | 85 | 1011.8 |
| 20260509095403 | 27 | 317 | 1.0 | 4.0 | 0.00 | 0.00 | 0.00 | 84 | 1011.6 |
| 20260509093901 | 27 | 316 | 1.0 | 4.0 | 0.00 | 0.00 | 0.00 | 85 | 1011.4 |